Time;durP1;ratioP1;P1;durP2;ratioP2;P2;SDS_P1;SDS_P2;PMS_P1;PMS_P2;Temp;Humidity;BMP_temperature;BMP_pressure;BME280_temperature;BME280_humidity;BME280_pressure;Samples;Min_cycle;Max_cycle;Signal;HPM_P1;HPM_P2
2024/03/10 00:00:24;;;;;;;25.25;15.30;;;;;;;6.63;62.08;95116.75;5092804;27;20020;-80
2024/03/10 00:02:50;;;;;;;24.10;14.43;;;;;;;6.55;62.04;95115.28;5110425;27;20023;-80
2024/03/10 00:05:16;;;;;;;27.27;15.52;;;;;;;6.61;62.01;95118.34;5129119;27;20023;-80
2024/03/10 00:07:42;;;;;;;26.27;15.65;;;;;;;6.64;62.04;95121.03;5092867;27;20076;-79
2024/03/10 00:10:10;;;;;;;27.23;16.13;;;;;;;6.68;62.24;95122.97;5093091;27;20108;-78
2024/03/10 00:12:36;;;;;;;27.40;14.48;;;;;;;6.62;62.19;95128.09;5109654;27;20023;-80
2024/03/10 00:15:01;;;;;;;26.83;14.63;;;;;;;6.56;61.89;95113.34;5110840;27;20470;-80
2024/03/10 00:17:27;;;;;;;24.48;14.90;;;;;;;6.66;61.78;95109.72;5112148;27;20027;-80
2024/03/10 00:19:52;;;;;;;25.02;14.93;;;;;;;6.61;61.99;95115.63;5122885;27;20027;-80
2024/03/10 00:22:20;;;;;;;26.58;15.50;;;;;;;6.58;62.08;95114.47;5134967;27;20084;-80
2024/03/10 00:24:45;;;;;;;26.10;15.35;;;;;;;6.58;62.43;95108.22;5128768;27;20094;-80
2024/03/10 00:27:13;;;;;;;27.23;15.07;;;;;;;6.63;62.11;95107.78;5128996;27;20394;-80
2024/03/10 00:29:39;;;;;;;24.95;15.23;;;;;;;6.70;61.70;95107.69;5108981;27;20500;-80
2024/03/10 00:32:07;;;;;;;25.35;15.05;;;;;;;6.65;61.57;95114.41;5128710;27;20027;-79
2024/03/10 00:34:37;;;;;;;29.42;16.83;;;;;;;6.68;61.47;95104.63;5108978;27;20043;-79
2024/03/10 00:37:02;;;;;;;27.08;15.40;;;;;;;6.58;62.17;95100.81;5110726;27;20020;-80
2024/03/10 00:39:28;;;;;;;26.27;16.00;;;;;;;6.54;62.11;95102.06;5109555;27;20025;-81
2024/03/10 00:41:53;;;;;;;26.60;15.63;;;;;;;6.51;62.17;95100.91;5109642;27;20492;-80
2024/03/10 00:44:19;;;;;;;24.90;16.17;;;;;;;6.54;62.03;95097.38;5109871;27;20026;-79
2024/03/10 00:46:45;;;;;;;26.95;15.23;;;;;;;6.52;61.99;95102.44;5109314;27;20167;-80
2024/03/10 00:49:10;;;;;;;25.65;16.13;;;;;;;6.54;62.21;95094.63;5110393;27;20034;-80
2024/03/10 00:51:35;;;;;;;24.02;14.75;;;;;;;6.52;62.13;95088.00;5127308;27;20031;-80
2024/03/10 00:54:01;;;;;;;25.25;14.75;;;;;;;6.61;61.63;95094.53;5128405;27;20404;-80
2024/03/10 00:56:27;;;;;;;24.60;15.23;;;;;;;6.56;61.93;95077.81;5127702;27;20023;-80
2024/03/10 00:58:52;;;;;;;24.73;15.10;;;;;;;6.60;61.43;95087.53;5092525;27;20026;-80
2024/03/10 01:01:19;;;;;;;27.67;16.20;;;;;;;6.57;61.59;95084.84;5127387;27;20023;-79
2024/03/10 01:03:44;;;;;;;22.08;14.32;;;;;;;6.59;61.68;95082.47;5127159;27;20054;-80
2024/03/10 01:06:12;;;;;;;27.55;16.77;;;;;;;6.57;61.68;95085.59;5109362;27;20050;-80
2024/03/10 01:08:38;;;;;;;24.27;14.05;;;;;;;6.58;61.87;95086.38;5109124;27;20019;-80
2024/03/10 01:11:03;;;;;;;25.90;15.52;;;;;;;6.56;62.10;95078.59;5108795;27;20054;-79
2024/03/10 01:13:29;;;;;;;25.13;14.95;;;;;;;6.60;62.15;95081.31;5091977;27;20055;-80
2024/03/10 01:15:54;;;;;;;27.20;15.73;;;;;;;6.59;62.43;95061.38;5127659;27;20047;-80
2024/03/10 01:18:22;;;;;;;23.73;14.30;;;;;;;6.65;62.12;95067.97;5108954;27;20028;-80
2024/03/10 01:20:48;;;;;;;24.58;15.85;;;;;;;6.55;62.08;95057.94;5108971;27;20100;-80
2024/03/10 01:23:13;;;;;;;24.52;14.60;;;;;;;6.67;62.28;95058.59;5092297;27;20031;-79
2024/03/10 01:25:39;;;;;;;25.95;15.95;;;;;;;6.70;62.07;95052.28;5126618;27;20042;-80
2024/03/10 01:28:07;;;;;;;23.85;15.00;;;;;;;6.72;61.98;95050.72;5111606;27;20027;-80
2024/03/10 01:30:33;;;;;;;25.63;15.68;;;;;;;6.74;62.01;95059.28;5115950;27;20084;-81
2024/03/10 01:32:58;;;;;;;27.52;16.60;;;;;;;6.82;61.79;95062.69;5108900;27;20027;-80
2024/03/10 01:35:24;;;;;;;29.77;15.75;;;;;;;6.83;61.67;95061.53;5108361;27;20061;-80
2024/03/10 01:37:49;;;;;;;26.30;15.20;;;;;;;6.80;61.79;95051.41;5108860;27;20035;-80
2024/03/10 01:40:15;;;;;;;25.27;15.43;;;;;;;6.81;62.16;95050.22;5091528;27;20573;-79
2024/03/10 01:42:59;;;;;;;25.27;15.73;;;;;;;6.83;61.92;95056.06;5108119;27;20027;-80
2024/03/10 01:45:24;;;;;;;26.05;16.05;;;;;;;6.86;61.92;95053.25;5127043;27;20039;-79
2024/03/10 01:47:50;;;;;;;26.38;14.98;;;;;;;6.86;62.05;95066.16;5108077;27;20052;-80
2024/03/10 01:50:17;;;;;;;30.00;15.52;;;;;;;6.85;61.94;95054.44;5108206;27;20027;-79
2024/03/10 01:52:43;;;;;;;23.42;14.98;;;;;;;6.88;61.74;95055.56;5108338;27;20160;-80
2024/03/10 01:55:11;;;;;;;24.77;14.85;;;;;;;6.89;61.81;95059.88;5108005;27;20106;-80
2024/03/10 01:57:37;;;;;;;24.85;15.93;;;;;;;6.94;61.79;95062.16;5108575;27;20500;-80
2024/03/10 02:00:05;;;;;;;28.02;15.55;;;;;;;6.95;61.34;95065.66;5107487;27;20019;-80
2024/03/10 02:02:31;;;;;;;24.90;15.30;;;;;;;6.94;61.20;95070.38;5108306;27;20034;-80
2024/03/10 02:04:57;;;;;;;24.40;15.32;;;;;;;6.87;61.55;95062.22;5090670;27;20023;-80
2024/03/10 02:07:23;;;;;;;26.77;16.67;;;;;;;6.86;61.63;95058.72;5108225;27;20098;-80
2024/03/10 02:09:48;;;;;;;23.38;15.27;;;;;;;6.87;61.94;95057.53;5107694;27;20564;-81
2024/03/10 02:12:15;;;;;;;25.88;16.05;;;;;;;6.88;61.88;95053.66;5126188;27;20026;-79
2024/03/10 02:14:41;;;;;;;25.27;15.77;;;;;;;6.87;61.99;95046.59;5091177;27;20035;-79
2024/03/10 02:17:10;;;;;;;23.95;15.13;;;;;;;6.92;61.78;95035.22;5090254;27;20030;-80
2024/03/10 02:19:36;;;;;;;27.30;15.70;;;;;;;6.89;62.01;95032.56;5108982;27;20024;-80
2024/03/10 02:22:02;;;;;;;26.70;15.75;;;;;;;6.88;61.73;95025.50;5089714;27;20106;-79
2024/03/10 02:24:31;;;;;;;26.98;15.40;;;;;;;6.83;61.72;95031.47;5090758;27;20117;-81
2024/03/10 02:26:57;;;;;;;27.88;16.08;;;;;;;6.82;61.80;95027.94;5090625;27;20200;-80
2024/03/10 02:29:23;;;;;;;24.23;14.88;;;;;;;6.83;61.79;95026.75;5107552;27;20466;-79
2024/03/10 02:48:25;;;;;;;25.67;15.27;;;;;;;6.84;62.08;95030.28;5125597;27;20061;-79
2024/03/10 02:50:51;;;;;;;25.30;14.88;;;;;;;6.98;61.98;95051.94;5125624;27;20114;-80
2024/03/10 02:53:16;;;;;;;23.95;15.68;;;;;;;6.78;61.96;95012.78;5107120;27;20027;-79
2024/03/10 02:55:42;;;;;;;28.73;16.73;;;;;;;6.95;61.59;95036.38;5089674;27;20054;-80
2024/03/10 02:58:07;;;;;;;24.45;15.45;;;;;;;6.91;61.85;95041.88;5107241;27;20076;-79
2024/03/10 03:00:33;;;;;;;27.00;15.18;;;;;;;6.83;62.00;95026.00;5106139;27;20027;-78
2024/03/10 03:03:00;;;;;;;27.90;16.25;;;;;;;6.88;62.09;95015.38;5125592;27;20101;-79
2024/03/10 03:05:28;;;;;;;24.85;15.20;;;;;;;6.89;62.16;95016.94;5106699;28;20023;-79
2024/03/10 03:07:55;;;;;;;25.70;15.77;;;;;;;6.91;61.98;95011.03;5125888;27;20053;-79
2024/03/10 03:10:21;;;;;;;25.63;15.07;;;;;;;6.84;62.29;95011.16;5106663;28;20047;-80
2024/03/10 03:12:47;;;;;;;25.80;15.30;;;;;;;6.83;62.09;95007.63;5089560;28;20095;-80
2024/03/10 03:15:13;;;;;;;26.50;15.20;;;;;;;6.80;62.39;95021.34;5106950;28;20023;-80
2024/03/10 03:17:41;;;;;;;24.40;16.13;;;;;;;6.78;62.49;95027.22;5089456;28;20405;-80
2024/03/10 03:20:15;;;;;;;25.65;15.63;;;;;;;6.80;62.22;95024.06;5090486;28;20481;-80
2024/03/10 03:22:44;;;;;;;26.77;16.45;;;;;;;6.77;62.34;95027.63;5108112;28;20115;-80
2024/03/10 03:25:11;;;;;;;28.20;16.00;;;;;;;6.71;62.33;95021.06;5106403;28;20509;-80
2024/03/10 03:27:38;;;;;;;28.33;16.17;;;;;;;6.68;62.42;95017.19;5107188;28;20076;-80
2024/03/10 03:30:06;;;;;;;26.73;16.05;;;;;;;6.67;62.43;95009.41;5106105;28;20027;-78
2024/03/10 03:32:32;;;;;;;26.90;16.17;;;;;;;6.63;62.38;95012.94;5108543;27;20052;-80
2024/03/10 03:34:57;;;;;;;27.20;16.83;;;;;;;6.63;62.29;95023.88;5128934;27;20544;-80
2024/03/10 03:37:23;;;;;;;24.92;15.25;;;;;;;6.53;62.49;95021.28;5129566;27;20023;-80
2024/03/10 03:39:48;;;;;;;27.52;17.25;;;;;;;6.56;62.51;95025.94;5110970;27;20037;-80
2024/03/10 03:42:15;;;;;;;26.52;15.57;;;;;;;6.53;62.51;95013.84;5094029;27;20019;-80
2024/03/10 03:44:41;;;;;;;27.27;17.17;;;;;;;6.52;62.60;95017.00;5121067;27;20026;-79
2024/03/10 03:47:06;;;;;;;28.83;16.88;;;;;;;6.52;62.81;95020.50;5107786;27;20023;-80
2024/03/10 03:49:31;;;;;;;30.08;17.35;;;;;;;6.42;63.02;95015.94;5113446;27;20393;-80
2024/03/10 03:51:57;;;;;;;27.85;17.48;;;;;;;6.40;63.17;95029.22;5093386;27;20050;-80
2024/03/10 03:54:22;;;;;;;31.35;17.55;;;;;;;6.30;63.28;95022.69;5110466;27;20481;-80
2024/03/10 03:56:49;;;;;;;30.85;18.25;;;;;;;6.37;63.44;95027.31;5110350;27;20106;-80
2024/03/10 03:59:14;;;;;;;28.80;17.63;;;;;;;6.39;63.20;95014.03;5093612;27;20027;-80
2024/03/10 04:01:39;;;;;;;27.58;16.60;;;;;;;6.49;62.87;95024.06;5109849;27;20034;-80
2024/03/10 04:04:06;;;;;;;28.52;17.15;;;;;;;6.46;62.96;95029.56;5110014;27;20019;-81
2024/03/10 04:06:31;;;;;;;29.15;17.17;;;;;;;6.47;63.10;95029.13;5129066;27;20055;-80
2024/03/10 04:08:57;;;;;;;34.03;17.73;;;;;;;6.50;62.92;95020.16;5109948;27;20667;-80
2024/03/10 04:11:22;;;;;;;27.20;15.70;;;;;;;6.53;62.83;95024.78;5129033;27;20348;-81
2024/03/10 04:13:48;;;;;;;26.90;17.25;;;;;;;6.61;62.66;95025.47;5128167;27;20039;-79
2024/03/10 04:16:13;;;;;;;28.65;16.45;;;;;;;6.60;62.42;95021.97;5093113;27;20019;-80
2024/03/10 04:18:39;;;;;;;29.63;16.83;;;;;;;6.63;62.54;95028.56;5128666;27;20072;-79
2024/03/10 04:21:04;;;;;;;27.55;16.67;;;;;;;6.66;62.53;95041.44;5093128;27;20034;-79
2024/03/10 04:23:29;;;;;;;27.85;17.02;;;;;;;6.58;62.41;95037.97;5110102;27;20051;-81
2024/03/10 04:25:55;;;;;;;29.70;16.55;;;;;;;6.60;62.49;95040.31;5109431;27;20026;-81
2024/03/10 04:28:21;;;;;;;29.42;17.00;;;;;;;6.52;62.55;95041.56;5128804;27;20686;-80
2024/03/10 04:30:46;;;;;;;27.60;17.38;;;;;;;6.61;62.61;95047.34;5109196;27;20059;-79
2024/03/10 04:33:12;;;;;;;30.20;17.38;;;;;;;6.61;62.41;95045.38;5128424;27;20027;-79
2024/03/10 04:35:38;;;;;;;30.98;18.77;;;;;;;6.56;62.54;95036.84;5109593;27;20031;-79
2024/03/10 04:38:04;;;;;;;33.90;18.38;;;;;;;6.57;62.45;95043.88;5128157;27;20043;-80
2024/03/10 04:40:30;;;;;;;37.00;19.30;;;;;;;6.51;62.29;95038.06;5092911;27;20031;-80
2024/03/10 04:42:55;;;;;;;31.73;17.70;;;;;;;6.56;62.13;95043.09;5092094;27;20458;-79
2024/03/10 04:45:21;;;;;;;29.88;18.88;;;;;;;6.56;62.20;95047.78;5108903;27;20027;-80
2024/03/10 04:47:46;;;;;;;30.33;18.73;;;;;;;6.52;62.71;95053.28;5092096;27;20055;-79
2024/03/10 04:50:12;;;;;;;33.90;18.10;;;;;;;6.45;62.58;95055.31;5109620;27;20130;-80
2024/03/10 04:52:38;;;;;;;29.27;18.50;;;;;;;6.46;62.65;95056.88;5109624;27;20034;-80
2024/03/10 04:55:05;;;;;;;33.45;18.27;;;;;;;6.41;63.09;95058.06;5118803;27;20031;-80
2024/03/10 04:57:32;;;;;;;33.85;20.00;;;;;;;6.34;63.12;95048.00;5092777;27;20108;-80
2024/03/10 04:59:59;;;;;;;35.10;19.75;;;;;;;6.27;63.25;95050.81;5109127;27;20133;-81
2024/03/10 05:02:25;;;;;;;37.65;20.27;;;;;;;6.22;63.49;95064.13;5109000;27;20023;-81
2024/03/10 05:04:50;;;;;;;32.85;20.10;;;;;;;6.23;63.45;95068.41;5091408;27;20128;-79
2024/03/10 05:07:16;;;;;;;34.97;19.17;;;;;;;6.24;63.40;95072.69;5109683;27;20581;-80
2024/03/10 05:09:41;;;;;;;33.50;19.13;;;;;;;6.14;63.43;95060.72;5127036;27;20050;-80
2024/03/10 05:12:08;;;;;;;32.22;19.70;;;;;;;6.07;63.90;95075.19;5109156;27;20436;-80
2024/03/10 05:14:34;;;;;;;30.70;18.80;;;;;;;6.04;63.87;95078.72;5092282;27;20023;-80
2024/03/10 05:17:02;;;;;;;36.55;19.27;;;;;;;6.00;63.94;95075.25;5091727;27;20015;-79
2024/03/10 05:19:30;;;;;;;33.25;19.52;;;;;;;6.00;64.06;95086.16;5127820;27;20027;-80
2024/03/10 05:21:55;;;;;;;31.17;19.92;;;;;;;6.02;64.04;95086.56;5108624;27;20114;-80
2024/03/10 05:24:22;;;;;;;32.17;18.98;;;;;;;6.01;64.20;95087.72;5127697;27;20392;-80
2024/03/10 05:26:48;;;;;;;34.40;19.67;;;;;;;6.04;64.33;95094.34;5108051;27;20023;-80
2024/03/10 05:29:13;;;;;;;35.40;20.75;;;;;;;5.96;64.51;95084.66;5127456;27;20031;-80
2024/03/10 05:31:39;;;;;;;31.63;19.08;;;;;;;5.96;64.55;95087.38;5108274;27;20459;-79
2024/03/10 05:34:05;;;;;;;32.15;19.05;;;;;;;5.97;64.48;95084.25;5127026;27;20040;-79
2024/03/10 05:36:32;;;;;;;32.78;20.13;;;;;;;5.99;64.53;95070.97;5127079;27;20490;-79
2024/03/10 05:38:58;;;;;;;32.92;19.48;;;;;;;6.01;64.58;95067.84;5108373;27;20034;-80
2024/03/10 05:41:24;;;;;;;32.80;17.52;;;;;;;6.04;64.75;95080.69;5108953;27;20088;-79
2024/03/10 05:43:49;;;;;;;33.30;19.48;;;;;;;6.09;64.37;95074.81;5107694;27;20011;-79
2024/03/10 05:46:15;;;;;;;35.80;20.67;;;;;;;6.08;64.13;95079.47;5108643;27;20019;-80
2024/03/10 05:48:43;;;;;;;36.22;19.90;;;;;;;6.17;63.78;95081.72;5108151;27;20052;-80
2024/03/10 05:51:13;;;;;;;37.22;20.00;;;;;;;6.16;63.46;95080.19;5091113;27;20023;-79
2024/03/10 05:53:39;;;;;;;31.88;19.35;;;;;;;6.20;63.30;95091.09;5091466;27;20031;-80
2024/03/10 05:56:05;;;;;;;36.75;19.98;;;;;;;6.34;62.93;95088.19;5107145;27;20033;-79
2024/03/10 05:58:38;;;;;;;32.63;18.75;;;;;;;6.42;62.58;95106.03;5108104;27;20080;-80
2024/03/10 06:01:04;;;;;;;30.15;18.85;;;;;;;6.35;63.00;95098.69;5092541;27;20106;-79
2024/03/10 06:03:30;;;;;;;34.97;20.15;;;;;;;6.41;62.93;95095.53;5115993;27;20061;-79
2024/03/10 06:05:55;;;;;;;31.23;19.35;;;;;;;6.58;62.28;95103.53;5107673;27;20477;-78
2024/03/10 06:08:21;;;;;;;33.00;20.10;;;;;;;6.63;62.40;95108.56;5091008;27;20034;-79
2024/03/10 06:10:46;;;;;;;34.75;21.08;;;;;;;6.63;62.42;95103.09;5107340;27;20043;-77
2024/03/10 06:13:16;;;;;;;39.10;21.30;;;;;;;6.70;62.48;95112.41;5090465;27;20091;-79
2024/03/10 06:15:41;;;;;;;40.47;22.38;;;;;;;6.73;62.74;95106.91;5107730;27;20031;-79
2024/03/10 06:18:18;;;;;;;41.60;22.52;;;;;;;6.79;62.63;95108.00;5125398;27;20083;-79
2024/03/10 06:26:14;;;;;;;;;;;;;;;6.98;62.26;95114.81;5110749;27;20065;-78
2024/03/10 06:28:40;;;;;;;33.22;18.02;;;;;;;7.02;61.94;95123.75;5107639;27;20312;-78
2024/03/10 06:31:05;;;;;;;29.38;17.73;;;;;;;7.09;61.86;95125.59;5106789;27;20474;-77
2024/03/10 06:33:34;;;;;;;28.17;17.23;;;;;;;7.10;61.91;95117.00;5107755;27;20058;-77
2024/03/10 06:35:59;;;;;;;30.75;18.08;;;;;;;7.10;61.57;95102.56;5107253;27;20075;-79
2024/03/10 06:38:25;;;;;;;29.05;17.58;;;;;;;7.28;61.27;95121.47;5126284;27;20027;-78
2024/03/10 06:40:51;;;;;;;29.48;18.30;;;;;;;7.38;60.92;95120.53;5126416;27;20023;-79
2024/03/10 06:43:16;;;;;;;33.25;19.63;;;;;;;7.42;60.76;95111.09;5125628;27;20404;-79
2024/03/10 06:45:42;;;;;;;34.92;18.60;;;;;;;7.48;60.80;95111.44;5125651;27;20023;-78
2024/03/10 06:48:08;;;;;;;33.92;18.88;;;;;;;7.59;60.33;95109.31;5106879;27;20039;-78
2024/03/10 06:50:33;;;;;;;31.80;19.02;;;;;;;7.77;59.88;95121.97;5090611;27;20030;-77
2024/03/10 06:52:59;;;;;;;25.95;16.88;;;;;;;7.81;59.47;95122.69;5089605;27;20057;-78
2024/03/10 06:55:26;;;;;;;28.27;17.10;;;;;;;7.84;59.30;95125.34;5107628;27;20536;-79
2024/03/10 06:57:51;;;;;;;37.88;18.92;;;;;;;7.89;59.42;95124.13;5125286;27;20633;-77
2024/03/10 07:00:20;;;;;;;29.60;18.23;;;;;;;7.97;59.16;95129.06;5125381;27;20062;-78
2024/03/10 07:02:45;;;;;;;32.35;19.60;;;;;;;8.06;58.75;95128.53;5107321;27;20023;-79
2024/03/10 07:05:12;;;;;;;29.50;18.80;;;;;;;8.20;58.92;95133.00;5106489;28;20397;-78
2024/03/10 07:07:37;;;;;;;29.80;18.30;;;;;;;8.24;58.50;95129.00;5106876;27;20035;-79
2024/03/10 07:10:04;;;;;;;32.92;19.92;;;;;;;8.32;58.31;95128.91;5112532;27;20031;-78
2024/03/10 07:12:30;;;;;;;30.00;19.27;;;;;;;8.40;58.20;95142.09;5116129;28;20529;-78
2024/03/10 07:14:57;;;;;;;34.55;19.80;;;;;;;8.58;57.59;95138.25;5128163;27;20445;-79
2024/03/10 07:17:22;;;;;;;29.92;18.58;;;;;;;8.58;57.55;95135.53;5107912;28;20030;-79
2024/03/10 07:19:48;;;;;;;29.85;19.05;;;;;;;8.67;57.50;95141.25;5089737;28;20443;-79
2024/03/10 07:22:13;;;;;;;32.42;19.70;;;;;;;8.78;57.05;95139.84;5106220;28;20027;-79
2024/03/10 07:24:38;;;;;;;28.77;18.33;;;;;;;8.92;56.74;95149.00;5106776;28;20424;-78
2024/03/10 07:27:05;;;;;;;31.38;18.92;;;;;;;9.00;56.69;95145.72;5124752;28;20030;-78
2024/03/10 07:29:30;;;;;;;29.48;18.67;;;;;;;9.10;56.38;95141.19;5107013;28;20031;-80
2024/03/10 07:31:56;;;;;;;31.02;18.23;;;;;;;9.23;56.11;95130.34;5089012;28;20190;-80
2024/03/10 07:34:21;;;;;;;32.92;19.25;;;;;;;9.36;55.21;95131.28;5106892;28;20042;-79
2024/03/10 07:36:48;;;;;;;30.67;18.20;;;;;;;9.42;55.21;95146.03;5106459;28;20021;-79
2024/03/10 07:39:14;;;;;;;29.23;17.75;;;;;;;9.51;54.68;95126.22;5090000;28;20092;-80
2024/03/10 07:41:41;;;;;;;30.20;18.55;;;;;;;9.62;54.41;95137.75;5106887;28;20742;-78
2024/03/10 07:44:06;;;;;;;27.25;17.33;;;;;;;9.73;54.04;95137.53;5106219;28;20019;-80
2024/03/10 07:46:32;;;;;;;28.65;16.92;;;;;;;9.87;53.93;95139.97;5106882;28;20042;-77
2024/03/10 07:49:00;;;;;;;24.45;15.57;;;;;;;10.00;52.86;95137.31;5089071;28;20051;-77
2024/03/10 07:51:27;;;;;;;25.42;16.42;;;;;;;10.03;53.03;95137.22;5090977;28;20492;-77
2024/03/10 07:53:52;;;;;;;24.50;15.70;;;;;;;10.16;53.25;95131.81;5089986;28;20020;-77
2024/03/10 07:56:18;;;;;;;26.30;15.73;;;;;;;10.23;52.65;95123.44;5106488;28;20078;-76
2024/03/10 07:58:43;;;;;;;28.13;16.00;;;;;;;10.32;52.60;95123.63;5106541;28;20058;-77
2024/03/10 08:01:09;;;;;;;25.10;16.58;;;;;;;10.39;52.61;95114.41;5088866;28;20114;-78
2024/03/10 08:03:35;;;;;;;28.10;17.13;;;;;;;10.49;52.43;95118.84;5089730;28;20023;-77
2024/03/10 08:06:01;;;;;;;24.67;16.85;;;;;;;10.68;51.70;95116.44;5106151;28;20027;-77
2024/03/10 08:08:27;;;;;;;26.40;16.48;;;;;;;10.69;51.59;95109.72;5125573;28;20103;-77
2024/03/10 08:10:53;;;;;;;25.05;15.35;;;;;;;10.92;51.22;95122.47;5124691;28;20527;-77
2024/03/10 08:13:18;;;;;;;24.45;15.73;;;;;;;11.03;51.46;95114.69;5106623;28;20051;-78
2024/03/10 08:15:44;;;;;;;25.35;15.75;;;;;;;11.22;50.50;95115.72;5106250;28;20038;-79
2024/03/10 08:18:09;;;;;;;24.15;15.70;;;;;;;11.34;50.62;95120.50;5106268;28;20035;-78
2024/03/10 08:20:35;;;;;;;25.58;16.25;;;;;;;11.47;49.89;95106.75;5116417;27;20030;-78
2024/03/10 08:23:04;;;;;;;30.80;17.73;;;;;;;11.61;49.70;95101.59;5111488;27;20034;-79
2024/03/10 08:25:30;;;;;;;23.30;15.25;;;;;;;11.68;49.61;95101.38;5110535;27;20102;-79
2024/03/10 08:27:56;;;;;;;23.20;14.32;;;;;;;11.95;48.68;95103.72;5109678;27;20131;-79
2024/03/10 08:30:21;;;;;;;27.58;15.38;;;;;;;12.15;48.16;95108.22;5128450;27;20035;-79
2024/03/10 08:32:48;;;;;;;20.98;13.85;;;;;;;12.34;47.76;95100.94;5109792;27;20046;-79
2024/03/10 08:35:13;;;;;;;16.98;12.18;;;;;;;12.56;46.83;95095.44;5109755;27;20023;-79
2024/03/10 08:37:40;;;;;;;17.70;12.05;;;;;;;12.81;46.76;95100.91;5092729;27;20169;-78
2024/03/10 08:40:12;;;;;;;21.17;11.48;;;;;;;13.01;46.58;95106.09;5109320;27;20034;-79
2024/03/10 08:42:38;;;;;;;18.38;12.02;;;;;;;13.26;46.14;95113.53;5128830;27;20031;-78
2024/03/10 08:45:05;;;;;;;19.55;12.32;;;;;;;13.60;44.91;95100.84;5109609;27;20023;-77
2024/03/10 08:47:32;;;;;;;18.23;12.95;;;;;;;13.92;44.07;95099.59;5110467;27;20034;-83
2024/03/10 08:49:58;;;;;;;20.05;12.75;;;;;;;14.14;43.64;95091.25;5130427;27;20438;-83
2024/03/10 08:52:24;;;;;;;22.48;14.63;;;;;;;14.45;42.51;95091.94;5128378;27;20473;-86
2024/03/10 08:54:50;;;;;;;20.05;14.18;;;;;;;14.66;42.28;95090.28;5112932;27;20034;-85
2024/03/10 08:57:16;;;;;;;19.15;13.77;;;;;;;14.94;41.84;95090.31;5128996;27;20400;-85
2024/03/10 08:59:42;;;;;;;23.33;12.80;;;;;;;15.30;41.51;95089.50;5128207;27;20194;-79
2024/03/10 09:02:07;;;;;;;21.35;14.55;;;;;;;15.67;40.08;95084.69;5091553;27;20470;-81
2024/03/10 09:04:33;;;;;;;22.38;14.98;;;;;;;15.96;40.64;95084.13;5127936;27;20078;-79
2024/03/10 09:06:58;;;;;;;21.20;13.45;;;;;;;16.32;42.56;95074.09;5127831;27;20050;-77
2024/03/10 09:09:24;;;;;;;19.65;13.95;;;;;;;16.73;40.68;95083.56;5128183;27;20027;-84
2024/03/10 09:11:51;;;;;;;23.02;13.88;;;;;;;17.19;39.03;95072.06;5128554;27;20066;-83
2024/03/10 09:14:18;;;;;;;19.15;13.38;;;;;;;17.53;37.85;95076.22;5129083;27;20023;-88
2024/03/10 09:16:44;;;;;;;22.08;14.65;;;;;;;17.83;37.56;95077.00;5110183;27;20042;-82
2024/03/10 09:19:09;;;;;;;18.23;14.25;;;;;;;18.18;36.90;95070.72;5109411;27;20058;-83
2024/03/10 09:21:36;;;;;;;22.10;13.90;;;;;;;18.58;35.63;95073.56;5127791;27;20126;-89
2024/03/10 09:24:02;;;;;;;23.95;14.35;;;;;;;18.85;35.47;95068.84;5109436;27;20545;-85
2024/03/10 09:26:28;;;;;;;19.75;13.70;;;;;;;19.15;34.47;95075.03;5110035;27;20054;-83
2024/03/10 09:28:57;;;;;;;20.58;15.35;;;;;;;19.43;33.69;95072.53;5128439;27;20015;-89
2024/03/10 09:31:23;;;;;;;18.77;13.75;;;;;;;19.70;33.42;95065.72;5127296;27;20458;-92
2024/03/10 09:33:51;;;;;;;19.92;14.82;;;;;;;20.32;31.77;95049.44;5117022;27;20035;-89
2024/03/10 09:36:17;;;;;;;24.75;14.77;;;;;;;20.86;30.90;95044.66;5110825;27;20024;-83
2024/03/10 09:38:44;;;;;;;20.23;13.90;;;;;;;21.52;29.77;95045.38;5110803;27;20106;-82
2024/03/10 09:41:15;;;;;;;23.55;13.95;;;;;;;22.12;28.76;95036.75;5108222;27;20023;-77
2024/03/10 09:43:40;;;;;;;19.20;13.45;;;;;;;22.77;28.30;95039.16;5109414;27;20027;-79
2024/03/10 09:46:13;;;;;;;19.83;14.20;;;;;;;23.49;27.00;95048.50;5108248;27;20418;-78
2024/03/10 09:48:42;;;;;;;17.97;13.40;;;;;;;24.19;25.92;95037.78;5108670;27;20027;-79
2024/03/10 09:51:11;;;;;;;17.20;13.10;;;;;;;24.97;24.69;95030.59;5126989;27;20334;-79
2024/03/10 09:53:37;;;;;;;18.33;13.13;;;;;;;25.76;23.84;95025.47;5108508;27;20023;-80
2024/03/10 09:56:03;;;;;;;19.05;12.70;;;;;;;26.35;23.08;95025.50;5109164;27;20053;-79
2024/03/10 09:58:47;;;;;;;18.73;12.75;;;;;;;27.01;22.75;95011.44;5126721;27;20016;-79
2024/03/10 10:01:24;;;;;;;17.70;12.70;;;;;;;27.60;22.12;95009.16;5126564;27;20031;-79
2024/03/10 10:03:50;;;;;;;17.50;11.63;;;;;;;28.21;21.08;95017.47;5108482;27;20030;-79
2024/03/10 10:06:17;;;;;;;16.10;11.85;;;;;;;28.64;20.78;95010.47;5107537;27;20030;-80
2024/03/10 10:08:45;;;;;;;15.57;11.70;;;;;;;28.92;20.10;95018.94;5109102;27;20092;-87
2024/03/10 10:11:12;;;;;;;14.00;10.93;;;;;;;29.19;20.33;95002.53;5126581;27;20095;-86
2024/03/10 10:13:38;;;;;;;16.02;10.75;;;;;;;29.37;19.87;94995.03;5128955;27;20041;-85
2024/03/10 10:16:08;;;;;;;14.02;10.30;;;;;;;29.91;19.35;95000.84;5127356;27;20027;-85
2024/03/10 10:18:36;;;;;;;10.63;9.23;;;;;;;30.24;18.75;95004.69;5128830;27;20023;-88
2024/03/10 10:21:06;;;;;;;15.80;9.32;;;;;;;30.50;18.79;94995.78;5129531;27;20019;-88
2024/03/10 10:23:32;;;;;;;30.17;12.18;;;;;;;31.03;18.96;94985.69;5127656;27;20030;-82
2024/03/10 10:26:12;;;;;;;16.45;9.32;;;;;;;31.20;18.21;94982.97;5127738;27;20045;-85
2024/03/10 10:28:41;;;;;;;12.40;9.25;;;;;;;31.62;17.45;94988.84;5109312;27;20108;-83
2024/03/10 10:31:15;;;;;;;9.30;8.27;;;;;;;31.96;17.66;94990.38;5109075;27;20026;-84
2024/03/10 10:33:45;;;;;;;12.85;8.52;;;;;;;32.34;17.37;94990.09;5127268;27;20030;-84
2024/03/10 10:36:11;;;;;;;13.20;9.63;;;;;;;32.96;16.68;94990.31;5112151;27;20086;-83
2024/03/10 10:38:44;;;;;;;12.57;8.90;;;;;;;33.50;16.43;94984.75;5121863;27;20076;-85
2024/03/10 10:41:10;;;;;;;10.93;8.10;;;;;;;33.75;15.32;94978.91;5120485;27;20441;-87
2024/03/10 10:43:39;;;;;;;13.10;8.15;;;;;;;33.80;15.41;94975.78;5131232;27;20051;-88
2024/03/10 10:46:05;;;;;;;8.68;7.25;;;;;;;34.22;15.05;94971.19;5143823;27;20048;-79
2024/03/10 10:48:34;;;;;;;8.73;7.13;;;;;;;34.57;14.83;94966.06;5138359;27;20027;-86
2024/03/10 10:51:00;;;;;;;8.95;7.20;;;;;;;34.81;14.75;94956.50;5137200;27;20035;-79
2024/03/10 10:53:26;;;;;;;13.88;7.15;;;;;;;35.37;14.65;94955.59;5108387;27;20027;-83
2024/03/10 10:55:51;;;;;;;158.52;16.77;;;;;;;35.44;14.03;94953.94;5128043;27;20027;-87
2024/03/10 10:58:18;;;;;;;13.63;7.65;;;;;;;35.81;13.94;94951.63;5108251;27;20019;-85
2024/03/10 11:00:49;;;;;;;9.65;8.15;;;;;;;35.73;14.22;94954.66;5127633;27;20031;-90
2024/03/10 11:03:17;;;;;;;8.30;6.88;;;;;;;36.04;14.16;94939.69;5128202;27;20051;-95
2024/03/10 11:06:01;;;;;;;10.05;6.93;;;;;;;36.17;13.52;94951.34;5128662;27;20019;-88
2024/03/10 11:08:28;;;;;;;15.55;9.65;;;;;;;36.36;13.57;94939.09;5127052;27;20023;-82
2024/03/10 11:10:54;;;;;;;13.70;6.68;;;;;;;36.65;13.52;94938.19;5125822;27;20115;-83
2024/03/10 11:13:22;;;;;;;9.48;7.10;;;;;;;36.69;13.63;94933.47;5108918;28;20520;-88
2024/03/10 11:16:04;;;;;;;29.50;8.57;;;;;;;36.43;13.96;94926.72;5106846;28;20027;-81
2024/03/10 11:18:30;;;;;;;12.90;8.07;;;;;;;36.68;13.91;94928.34;5125874;28;20055;-82
2024/03/10 11:20:58;;;;;;;13.07;8.45;;;;;;;37.10;13.71;94919.00;5107277;28;20026;-82
2024/03/10 11:23:23;;;;;;;9.70;6.40;;;;;;;37.45;13.02;94924.91;5106676;28;20027;-84
2024/03/10 11:25:52;;;;;;;11.98;7.22;;;;;;;37.52;12.86;94917.44;5126285;28;20055;-83
2024/03/10 11:28:28;;;;;;;7.47;6.40;;;;;;;37.71;12.57;94914.34;5125093;28;20031;-85
2024/03/10 11:30:58;;;;;;;9.10;6.53;;;;;;;37.72;12.46;94910.09;5108943;28;20023;-85
2024/03/10 11:33:24;;;;;;;11.13;6.95;;;;;;;37.50;12.48;94908.69;5106700;28;20086;-87
2024/03/10 11:35:51;;;;;;;8.57;6.15;;;;;;;37.71;12.41;94899.25;5091443;28;20385;-83
2024/03/10 11:38:18;;;;;;;10.45;6.35;;;;;;;37.79;12.28;94905.50;5125631;28;20046;-83
2024/03/10 11:40:44;;;;;;;9.98;6.57;;;;;;;36.67;12.87;94890.38;5108907;28;20063;-87
2024/03/10 11:43:11;;;;;;;8.38;5.85;;;;;;;36.81;12.83;94881.22;5111852;28;20031;-78